Time;durP1;ratioP1;P1;durP2;ratioP2;P2;SDS_P1;SDS_P2;PMS_P1;PMS_P2;Temp;Humidity;BMP_temperature;BMP_pressure;BME280_temperature;BME280_humidity;BME280_pressure;Samples;Min_cycle;Max_cycle;Signal;HPM_P1;HPM_P2
2024/01/01 00:02:11;;;;;;;51.38;38.45;;;;;;;7.86;82.82;99079.59;10344774;28;20049;-64
2024/01/01 00:07:13;;;;;;;52.33;35.22;;;;;;;7.86;83.07;99082.25;10327022;28;20162;-64
2024/01/01 00:12:14;;;;;;;36.20;27.65;;;;;;;7.84;83.29;99078.06;10324879;28;20049;-64
2024/01/01 00:17:15;;;;;;;54.47;40.80;;;;;;;7.84;83.37;99072.78;10324667;28;20918;-64
2024/01/01 00:22:17;;;;;;;35.28;29.00;;;;;;;7.77;83.38;99062.69;10319606;28;20123;-64
2024/01/01 00:27:19;;;;;;;29.05;24.55;;;;;;;7.57;83.25;99031.84;10323969;28;20065;-64
2024/01/01 00:32:20;;;;;;;32.53;25.60;;;;;;;7.77;83.54;99078.59;10324458;28;20419;-64
2024/01/01 00:37:22;;;;;;;29.17;24.48;;;;;;;7.73;83.84;99065.75;10320167;28;20065;-64
2024/01/01 00:42:25;;;;;;;23.13;19.95;;;;;;;7.84;82.97;99072.78;10321808;28;20466;-64
2024/01/01 00:47:27;;;;;;;25.17;19.52;;;;;;;7.87;82.63;99067.19;10321411;28;20624;-64
2024/01/01 00:52:28;;;;;;;22.55;15.98;;;;;;;7.73;82.94;99061.31;10321338;28;20057;-64
2024/01/01 00:57:31;;;;;;;21.65;17.98;;;;;;;7.78;82.99;99064.38;10320344;28;20721;-63
2024/01/01 01:02:32;;;;;;;19.58;15.13;;;;;;;7.81;84.26;99083.63;10322022;28;20049;-65
2024/01/01 01:07:36;;;;;;;20.10;15.95;;;;;;;7.76;84.70;99079.56;10329645;28;20054;-64
2024/01/01 01:12:37;;;;;;;21.60;16.38;;;;;;;7.76;84.47;99082.22;10341879;28;21439;-64
2024/01/01 01:17:38;;;;;;;18.27;15.85;;;;;;;7.79;84.56;99089.03;10329784;28;20053;-64
2024/01/01 01:22:40;;;;;;;21.02;18.60;;;;;;;7.81;84.19;99091.56;10329339;28;20064;-64
2024/01/01 01:27:42;;;;;;;21.25;18.50;;;;;;;7.84;84.47;99097.44;10328617;28;20054;-64
2024/01/01 01:32:43;;;;;;;21.20;17.63;;;;;;;7.83;84.71;99109.00;10330619;28;20074;-64
2024/01/01 01:37:45;;;;;;;22.73;18.20;;;;;;;7.79;84.92;99105.81;10350884;28;20054;-64
2024/01/01 01:42:46;;;;;;;24.58;20.20;;;;;;;7.80;84.97;99103.97;10327244;28;20040;-63
2024/01/01 01:47:48;;;;;;;28.33;19.85;;;;;;;7.84;84.94;99109.88;10347580;28;20189;-64
2024/01/01 01:52:50;;;;;;;25.60;18.25;;;;;;;7.68;85.09;99075.91;10326564;28;20050;-64
2024/01/01 01:57:52;;;;;;;18.60;15.82;;;;;;;7.92;85.78;99125.91;10325030;28;20056;-65
2024/01/01 02:02:53;;;;;;;19.73;15.70;;;;;;;7.81;88.24;99102.16;10340189;28;20181;-63
2024/01/01 02:07:55;;;;;;;19.92;13.88;;;;;;;7.75;89.28;99111.50;10329202;28;20046;-64
2024/01/01 02:12:57;;;;;;;17.27;13.43;;;;;;;7.85;89.28;99114.16;10330032;28;20065;-64
2024/01/01 02:17:59;;;;;;;19.30;14.40;;;;;;;7.84;89.64;99107.22;10331804;28;20111;-64
2024/01/01 02:23:00;;;;;;;15.43;12.32;;;;;;;7.89;89.56;99099.69;10323159;28;20049;-64
2024/01/01 02:28:02;;;;;;;16.42;11.88;;;;;;;7.96;89.46;99095.53;10320152;28;20049;-64
2024/01/01 02:33:09;;;;;;;17.65;11.63;;;;;;;7.85;89.56;99092.97;10322238;28;20053;-64
2024/01/01 02:38:10;;;;;;;15.43;11.57;;;;;;;7.87;89.45;99088.41;10323892;28;20053;-64
2024/01/01 02:43:12;;;;;;;12.02;9.65;;;;;;;7.96;89.29;99095.53;10354777;28;20133;-64
2024/01/01 02:48:14;;;;;;;12.52;9.50;;;;;;;7.91;88.34;99088.00;10324396;28;20054;-63
2024/01/01 02:53:16;;;;;;;11.73;7.60;;;;;;;7.91;88.12;99095.09;10323395;28;20105;-64
2024/01/01 02:58:17;;;;;;;10.93;8.13;;;;;;;7.82;87.82;99069.41;10325881;28;20167;-64
2024/01/01 03:03:19;;;;;;;8.82;6.55;;;;;;;7.86;87.36;99092.00;10327580;28;20046;-64
2024/01/01 03:08:21;;;;;;;8.80;6.50;;;;;;;7.73;86.89;99073.69;10323202;28;20138;-64
2024/01/01 03:13:22;;;;;;;10.32;6.47;;;;;;;7.88;86.18;99096.22;10316953;28;20062;-64
2024/01/01 03:18:24;;;;;;;11.80;6.07;;;;;;;7.84;85.24;99105.41;10338561;28;20054;-64
2024/01/01 03:23:25;;;;;;;11.63;5.50;;;;;;;7.89;84.75;99108.47;10319875;28;20049;-63
2024/01/01 03:28:27;;;;;;;9.60;4.88;;;;;;;7.85;83.75;99107.09;10321001;28;20802;-63
2024/01/01 03:33:28;;;;;;;8.88;3.58;;;;;;;8.01;83.85;99121.63;10320470;28;20057;-64
2024/01/01 03:38:30;;;;;;;8.35;4.03;;;;;;;7.96;83.84;99122.03;10325989;28;20049;-64
2024/01/01 03:43:31;;;;;;;5.57;3.58;;;;;;;7.95;84.61;99123.00;10324919;28;20504;-64
2024/01/01 03:48:33;;;;;;;6.20;3.40;;;;;;;8.05;84.64;99117.75;10323433;28;20060;-65
2024/01/01 03:53:34;;;;;;;6.45;3.70;;;;;;;8.04;85.08;99131.97;10345736;28;20062;-65
2024/01/01 03:58:36;;;;;;;8.15;3.85;;;;;;;8.09;85.03;99113.81;10318087;28;20166;-64
2024/01/01 04:03:37;;;;;;;8.48;4.35;;;;;;;8.12;85.07;99118.84;10343453;28;20566;-65
2024/01/01 04:08:39;;;;;;;7.93;3.53;;;;;;;8.11;84.79;99120.69;10319114;28;20543;-64
2024/01/01 04:13:40;;;;;;;8.05;3.88;;;;;;;8.11;84.62;99128.63;10323391;28;20538;-64
2024/01/01 04:18:42;;;;;;;7.32;3.40;;;;;;;8.02;84.55;99112.72;10325893;28;20062;-65
2024/01/01 04:23:43;;;;;;;8.25;3.03;;;;;;;8.08;83.95;99128.91;10321075;28;21041;-65
2024/01/01 04:28:45;;;;;;;8.63;2.65;;;;;;;8.02;83.28;99124.13;10327583;28;20069;-64
2024/01/01 04:33:47;;;;;;;5.93;3.15;;;;;;;8.05;83.26;99118.56;10323517;28;20108;-64
2024/01/01 04:38:49;;;;;;;8.32;2.42;;;;;;;8.02;82.13;99128.63;10325823;28;20060;-64
2024/01/01 04:43:51;;;;;;;3.70;1.90;;;;;;;7.95;83.34;99133.59;10331025;28;20132;-63
2024/01/01 04:48:52;;;;;;;8.20;2.88;;;;;;;7.96;83.29;99122.03;10328412;28;20081;-64
2024/01/01 04:53:54;;;;;;;6.35;1.90;;;;;;;8.07;82.72;99135.16;10332469;28;20054;-63
2024/01/01 04:58:56;;;;;;;8.95;2.30;;;;;;;8.04;82.82;99124.84;10336866;28;20057;-64
2024/01/01 05:03:57;;;;;;;5.00;1.50;;;;;;;8.02;82.49;99108.25;10344786;28;20049;-63
2024/01/01 05:08:59;;;;;;;5.18;2.05;;;;;;;8.04;82.12;99135.44;10326855;28;20058;-63
2024/01/01 05:14:00;;;;;;;6.03;1.83;;;;;;;7.96;81.19;99135.28;10324158;28;20050;-63
2024/01/01 05:19:03;;;;;;;3.97;1.10;;;;;;;8.04;81.29;99139.91;10325818;28;20521;-63
2024/01/01 05:24:05;;;;;;;4.70;1.85;;;;;;;8.04;80.61;99138.09;10320000;28;20053;-64
2024/01/01 05:29:07;;;;;;;3.50;0.80;;;;;;;8.02;80.97;99142.69;10353146;28;20506;-64
2024/01/01 05:34:08;;;;;;;7.53;1.08;;;;;;;8.08;81.39;99150.09;10321653;28;20089;-63
2024/01/01 05:39:11;;;;;;;4.57;1.10;;;;;;;8.00;81.90;99144.66;10323483;28;20048;-62
2024/01/01 05:44:12;;;;;;;2.42;0.80;;;;;;;8.01;82.21;99145.47;10346881;28;20639;-62
2024/01/01 05:49:14;;;;;;;5.57;1.20;;;;;;;7.92;82.27;99136.53;10323776;28;20054;-62
2024/01/01 05:54:16;;;;;;;8.98;1.63;;;;;;;7.74;82.84;99129.19;10329552;28;20085;-63
2024/01/01 05:59:17;;;;;;;5.25;0.98;;;;;;;7.93;83.07;99132.91;10330911;28;20073;-63
2024/01/01 06:04:19;;;;;;;4.35;1.35;;;;;;;7.93;81.97;99140.84;10360599;28;20060;-65
2024/01/01 06:09:20;;;;;;;5.95;1.67;;;;;;;7.72;81.92;99131.13;10327286;28;20046;-64
2024/01/01 06:14:22;;;;;;;4.40;1.42;;;;;;;7.86;81.51;99145.00;10324758;28;20061;-63
2024/01/01 06:19:23;;;;;;;7.57;1.80;;;;;;;7.81;81.40;99144.53;10322608;28;20911;-63
2024/01/01 06:24:25;;;;;;;5.47;1.08;;;;;;;7.86;81.69;99160.91;10325677;28;20061;-62
2024/01/01 06:29:27;;;;;;;4.85;1.02;;;;;;;7.81;81.40;99168.38;10325663;28;20185;-63
2024/01/01 06:34:29;;;;;;;4.45;1.45;;;;;;;7.78;81.47;99175.63;10329025;28;20054;-64
2024/01/01 06:39:30;;;;;;;7.32;1.65;;;;;;;7.69;81.88;99165.84;10326570;28;20137;-62
2024/01/01 06:44:31;;;;;;;4.40;0.93;;;;;;;7.90;81.27;99199.41;10320699;28;20062;-62
2024/01/01 06:49:33;;;;;;;3.15;0.57;;;;;;;7.89;81.78;99195.06;10320464;28;20056;-63
2024/01/01 06:54:38;;;;;;;2.00;0.60;;;;;;;7.78;82.01;99209.25;10323626;28;20053;-64
2024/01/01 06:59:39;;;;;;;3.50;0.50;;;;;;;7.84;82.39;99213.19;10323345;28;20440;-64
2024/01/01 07:04:41;;;;;;;3.25;0.85;;;;;;;7.86;82.67;99219.19;10324799;28;20060;-65
2024/01/01 07:09:42;;;;;;;4.20;1.13;;;;;;;7.82;82.65;99228.38;10329360;28;20676;-65
2024/01/01 07:14:44;;;;;;;6.00;1.52;;;;;;;7.85;83.09;99233.41;10324555;28;20216;-65
2024/01/01 07:19:46;;;;;;;4.60;0.90;;;;;;;7.76;82.53;99219.97;10321918;28;20054;-63
2024/01/01 07:24:48;;;;;;;1.90;0.60;;;;;;;7.83;81.69;99241.47;10326264;28;20113;-64
2024/01/01 07:29:49;;;;;;;3.10;0.60;;;;;;;7.74;81.87;99252.88;10323249;28;20116;-63
2024/01/01 07:34:54;;;;;;;5.27;1.17;;;;;;;7.72;81.91;99255.66;10325901;28;20151;-63
2024/01/01 07:39:55;;;;;;;3.60;0.80;;;;;;;7.63;82.23;99253.78;10325739;28;20072;-64
2024/01/01 07:44:57;;;;;;;3.38;0.93;;;;;;;7.68;82.36;99269.28;10320690;28;20165;-63
2024/01/01 07:49:58;;;;;;;6.85;1.75;;;;;;;7.75;82.39;99271.28;10322171;28;20073;-64
2024/01/01 07:55:00;;;;;;;7.05;1.80;;;;;;;7.67;82.77;99267.59;10318773;28;20148;-64
2024/01/01 08:00:01;;;;;;;5.38;1.17;;;;;;;7.61;83.55;99266.28;10321799;28;20785;-64
2024/01/01 08:05:03;;;;;;;3.35;1.05;;;;;;;7.70;83.36;99260.25;10324859;28;20065;-65
2024/01/01 08:10:05;;;;;;;3.60;1.73;;;;;;;7.77;82.44;99269.31;10324231;28;20672;-62
2024/01/01 08:15:07;;;;;;;4.35;0.93;;;;;;;7.76;82.03;99269.47;10332671;28;20056;-63
2024/01/01 08:20:09;;;;;;;5.22;1.40;;;;;;;7.89;81.99;99272.75;10332387;28;20050;-63
2024/01/01 08:25:11;;;;;;;7.25;1.15;;;;;;;7.91;81.67;99265.53;10330508;28;20069;-62
2024/01/01 08:30:13;;;;;;;4.20;1.20;;;;;;;7.87;81.07;99273.88;10329747;28;20076;-63
2024/01/01 08:35:14;;;;;;;4.60;0.95;;;;;;;7.86;81.59;99274.84;10322160;28;20053;-63
2024/01/01 08:40:16;;;;;;;7.40;1.48;;;;;;;7.85;80.76;99275.78;10358619;28;20053;-62
2024/01/01 08:45:19;;;;;;;7.25;1.17;;;;;;;7.72;80.80;99271.53;10332364;28;20107;-64
2024/01/01 08:50:20;;;;;;;4.03;1.23;;;;;;;7.93;81.07;99284.78;10330346;28;20073;-64
2024/01/01 08:55:22;;;;;;;4.68;1.35;;;;;;;8.02;80.68;99287.63;10336347;28;21824;-65
2024/01/01 09:00:26;;;;;;;9.57;1.60;;;;;;;8.05;80.19;99288.19;10330839;28;20735;-64
2024/01/01 09:05:27;;;;;;;6.50;1.38;;;;;;;8.07;80.65;99296.84;10331375;28;20057;-64
2024/01/01 09:10:28;;;;;;;7.05;1.77;;;;;;;8.11;80.14;99300.91;10323486;28;20590;-64
2024/01/01 09:15:30;;;;;;;6.38;1.42;;;;;;;8.20;79.58;99303.78;10342477;28;20057;-64
2024/01/01 09:20:31;;;;;;;6.15;1.73;;;;;;;8.40;78.67;99307.34;10326660;28;20970;-63
2024/01/01 09:25:34;;;;;;;6.68;1.30;;;;;;;8.51;77.51;99309.09;10324142;28;20053;-63
2024/01/01 09:30:35;;;;;;;6.07;1.35;;;;;;;8.54;76.96;99335.34;10329436;28;20104;-64
2024/01/01 09:35:37;;;;;;;10.27;2.22;;;;;;;8.51;76.21;99317.06;10328036;28;20195;-63
2024/01/01 09:40:39;;;;;;;4.40;1.58;;;;;;;8.70;75.72;99345.47;10327074;28;20068;-64
2024/01/01 09:45:42;;;;;;;6.88;1.38;;;;;;;8.72;75.13;99349.69;10324466;28;20053;-63
2024/01/01 09:50:43;;;;;;;3.47;0.82;;;;;;;8.53;74.71;99360.19;10325032;28;20077;-63
2024/01/01 09:55:52;;;;;;;5.68;1.08;;;;;;;8.34;75.82;99377.66;10325098;28;20058;-62
2024/01/01 10:01:08;;;;;;;5.30;0.95;;;;;;;8.18;76.63;99340.16;10324873;28;20606;-64
2024/01/01 10:06:11;;;;;;;4.25;1.10;;;;;;;8.29;77.05;99343.56;10326097;28;20046;-64
2024/01/01 10:11:19;;;;;;;4.68;0.88;;;;;;;8.30;76.80;99334.66;10324484;28;20050;-63
2024/01/01 10:16:25;;;;;;;3.03;0.93;;;;;;;8.37;76.82;99339.44;10327387;28;20185;-64
2024/01/01 10:21:29;;;;;;;5.50;0.95;;;;;;;8.51;77.08;99340.91;10326674;28;20205;-63
2024/01/01 10:26:32;;;;;;;6.95;1.70;;;;;;;8.38;77.03;99334.00;10324093;28;20050;-64
2024/01/01 10:31:37;;;;;;;7.30;1.42;;;;;;;8.35;77.98;99352.81;10323720;28;20085;-63
2024/01/01 10:36:41;;;;;;;6.03;1.40;;;;;;;8.32;78.72;99342.47;10348401;28;20054;-63
2024/01/01 10:41:43;;;;;;;5.25;1.42;;;;;;;8.41;79.47;99347.00;10350691;28;20058;-63
2024/01/01 10:46:48;;;;;;;10.10;1.98;;;;;;;8.30;80.46;99339.97;10345934;28;20112;-63
2024/01/01 10:52:18;;;;;;;9.90;1.80;;;;;;;8.38;80.96;99341.13;10319249;28;20622;-64
2024/01/01 10:57:57;;;;;;;8.98;1.83;;;;;;;8.44;81.09;99357.38;10324907;28;20526;-62
2024/01/01 11:02:59;;;;;;;8.30;2.40;;;;;;;8.43;81.31;99358.31;10322088;28;20097;-63
2024/01/01 11:08:02;;;;;;;8.73;2.85;;;;;;;8.46;80.67;99358.06;10324430;28;20262;-64
2024/01/01 11:13:05;;;;;;;6.95;2.88;;;;;;;8.54;79.59;99348.63;10342896;28;20920;-64
2024/01/01 11:18:14;;;;;;;7.45;1.95;;;;;;;8.64;79.06;99358.28;10321026;28;20069;-64
2024/01/01 11:23:41;;;;;;;9.82;2.33;;;;;;;8.81;77.45;99364.81;10325508;28;20112;-64
2024/01/01 11:28:44;;;;;;;10.48;2.80;;;;;;;8.79;76.50;99349.97;10325767;28;20049;-63
2024/01/01 11:33:45;;;;;;;6.72;1.40;;;;;;;8.90;75.62;99368.44;10325725;28;20063;-63
2024/01/01 11:38:48;;;;;;;6.45;1.75;;;;;;;8.97;75.06;99358.13;10345400;28;20120;-64
2024/01/01 11:43:50;;;;;;;7.13;2.13;;;;;;;9.06;74.73;99354.66;10326938;28;20727;-64
2024/01/01 11:48:56;;;;;;;9.07;2.15;;;;;;;9.24;74.01;99359.34;10343454;28;20077;-63
2024/01/01 11:54:11;;;;;;;8.88;2.17;;;;;;;9.44;73.59;99365.50;10324994;28;20050;-62
2024/01/01 11:59:13;;;;;;;10.73;2.60;;;;;;;9.94;70.65;99361.88;10318340;28;20048;-63
2024/01/01 12:04:15;;;;;;;10.60;1.95;;;;;;;10.36;69.48;99372.22;10344064;28;20061;-64
2024/01/01 12:09:18;;;;;;;8.77;2.45;;;;;;;9.76;70.37;99336.03;10325367;28;20050;-64
2024/01/01 12:14:24;;;;;;;11.23;2.78;;;;;;;9.54;71.53;99376.97;10307067;28;20042;-63
2024/01/01 12:19:26;;;;;;;8.35;2.35;;;;;;;9.35;73.08;99372.47;10324233;28;20129;-63
2024/01/01 12:24:29;;;;;;;7.90;2.40;;;;;;;9.19;73.90;99376.50;10321885;28;20057;-64
2024/01/01 12:29:32;;;;;;;9.82;1.90;;;;;;;9.00;74.24;99387.06;10326669;28;20128;-63
2024/01/01 12:34:34;;;;;;;7.77;1.77;;;;;;;8.88;75.47;99354.47;10321916;28;20061;-62
2024/01/01 12:39:35;;;;;;;4.43;1.63;;;;;;;8.95;78.51;99376.03;10319449;28;20068;-63
2024/01/01 12:44:37;;;;;;;7.10;2.15;;;;;;;8.99;79.25;99369.44;10321726;28;20054;-63
2024/01/01 12:49:38;;;;;;;5.50;1.27;;;;;;;9.11;77.90;99396.75;10320602;28;20057;-64
2024/01/01 12:54:40;;;;;;;4.18;1.38;;;;;;;9.06;77.63;99399.81;10325879;28;20061;-63
2024/01/01 12:59:41;;;;;;;7.07;2.08;;;;;;;9.10;79.07;99390.59;10326179;28;20061;-64
2024/01/01 13:04:43;;;;;;;8.57;3.22;;;;;;;8.95;79.33;99350.31;10331513;28;20264;-63
2024/01/01 13:09:45;;;;;;;6.38;1.75;;;;;;;9.18;79.30;99393.41;10327375;28;20054;-64
2024/01/01 13:14:47;;;;;;;9.07;2.50;;;;;;;9.16;79.87;99402.50;10327763;28;20245;-64
2024/01/01 13:19:48;;;;;;;8.15;3.05;;;;;;;9.13;79.24;99405.44;10328161;28;20062;-63
2024/01/01 13:24:50;;;;;;;8.77;4.85;;;;;;;9.06;78.80;99393.66;10321622;28;20618;-62
2024/01/01 13:29:51;;;;;;;10.60;6.30;;;;;;;9.05;79.04;99398.09;10327876;28;20128;-64
2024/01/01 13:34:52;;;;;;;8.50;5.35;;;;;;;9.01;78.92;99388.75;10325595;28;20076;-63
2024/01/01 13:39:54;;;;;;;11.43;3.60;;;;;;;8.98;79.34;99395.16;10325155;28;20049;-63
2024/01/01 13:44:56;;;;;;;22.35;19.25;;;;;;;8.92;79.47;99400.19;10330117;28;20053;-63
2024/01/01 13:49:57;;;;;;;8.98;1.98;;;;;;;9.00;79.42;99392.38;10322206;28;20097;-63
2024/01/01 13:54:59;;;;;;;50.60;46.38;;;;;;;9.17;79.29;99393.53;10326062;28;20069;-63
2024/01/01 14:00:00;;;;;;;18.48;13.27;;;;;;;9.14;78.65;99397.31;10332644;28;20051;-64
2024/01/01 14:05:04;;;;;;;9.63;3.40;;;;;;;9.28;76.70;99395.28;10336626;28;20594;-62
2024/01/01 14:10:07;;;;;;;6.22;2.17;;;;;;;9.50;76.40;99418.94;10326858;28;20042;-63
2024/01/01 14:15:09;;;;;;;9.48;2.22;;;;;;;9.30;75.06;99422.53;10330194;28;20058;-62
2024/01/01 14:20:12;;;;;;;7.18;2.08;;;;;;;9.28;75.96;99424.47;10325602;28;20650;-62
2024/01/01 14:25:14;;;;;;;15.20;2.65;;;;;;;9.15;75.50;99420.22;10322537;28;20049;-64
2024/01/01 14:30:16;;;;;;;14.73;3.30;;;;;;;9.24;75.35;99444.31;10323988;28;20058;-64
2024/01/01 14:35:17;;;;;;;11.10;2.60;;;;;;;9.21;74.58;99450.72;10343930;28;20050;-62
2024/01/01 14:40:19;;;;;;;11.93;2.95;;;;;;;9.26;74.68;99443.19;10326723;28;20132;-62
2024/01/01 14:45:20;;;;;;;9.77;3.05;;;;;;;9.20;73.52;99455.19;10332366;28;20061;-62
2024/01/01 14:50:22;;;;;;;10.05;2.50;;;;;;;9.17;74.02;99454.59;10340111;28;20072;-63
2024/01/01 14:55:24;;;;;;;8.40;2.15;;;;;;;9.26;74.07;99458.28;10322884;28;20060;-62
2024/01/01 15:00:26;;;;;;;11.48;3.00;;;;;;;9.24;72.85;99481.47;10327118;28;20181;-63
2024/01/01 15:05:27;;;;;;;11.50;3.55;;;;;;;9.13;72.59;99491.22;10353342;28;20522;-62
2024/01/01 15:10:29;;;;;;;11.95;3.05;;;;;;;9.02;72.19;99483.31;10325508;28;20188;-63
2024/01/01 15:15:30;;;;;;;7.95;2.85;;;;;;;9.03;72.70;99487.69;10322007;28;20061;-63
2024/01/01 15:20:32;;;;;;;8.35;3.10;;;;;;;8.97;72.01;99481.06;10325261;28;20216;-63
2024/01/01 15:25:33;;;;;;;9.10;2.63;;;;;;;9.02;71.39;99497.47;10323546;28;20057;-63
2024/01/01 15:30:34;;;;;;;8.82;2.47;;;;;;;9.03;72.20;99496.47;10326891;28;20130;-62
2024/01/01 15:35:36;;;;;;;10.57;3.35;;;;;;;9.06;71.87;99495.38;10345159;28;20053;-63
2024/01/01 15:40:37;;;;;;;9.35;2.83;;;;;;;9.06;72.09;99508.66;10355273;28;20136;-63
2024/01/01 15:45:39;;;;;;;10.20;3.13;;;;;;;8.96;72.07;99499.78;10321905;28;20155;-63
2024/01/01 15:50:40;;;;;;;13.45;3.08;;;;;;;8.97;72.19;99522.72;10322210;28;20056;-62
2024/01/01 15:55:53;;;;;;;6.97;2.55;;;;;;;8.91;72.54;99517.94;10319405;28;20081;-63
2024/01/01 16:00:54;;;;;;;16.33;4.03;;;;;;;8.98;72.16;99519.09;10319062;28;20060;-63
2024/01/01 16:05:56;;;;;;;15.13;7.05;;;;;;;9.03;72.46;99538.13;10324816;28;20750;-64
2024/01/01 16:10:58;;;;;;;11.52;3.80;;;;;;;8.90;71.95;99519.72;10322080;28;20055;-64
2024/01/01 16:15:59;;;;;;;13.07;3.70;;;;;;;8.92;72.44;99524.94;10346359;28;20733;-63
2024/01/01 16:21:01;;;;;;;11.48;3.90;;;;;;;8.92;72.76;99535.56;10323990;28;20136;-64
2024/01/01 16:26:03;;;;;;;12.68;4.00;;;;;;;8.91;71.99;99534.69;10320336;28;20057;-63
2024/01/01 16:31:04;;;;;;;11.30;3.17;;;;;;;8.83;71.96;99538.00;10328388;28;20057;-62
2024/01/01 16:36:13;;;;;;;12.98;4.70;;;;;;;8.91;71.93;99555.09;10331809;28;20165;-65
2024/01/01 16:41:15;;;;;;;9.23;3.58;;;;;;;8.82;71.89;99544.28;10331301;28;20127;-63
2024/01/01 16:46:16;;;;;;;12.73;4.18;;;;;;;8.72;72.16;99546.03;10328211;28;20054;-62
2024/01/01 16:51:18;;;;;;;12.02;3.83;;;;;;;8.82;72.21;99557.53;10328458;28;20057;-64
2024/01/01 16:56:19;;;;;;;10.52;3.08;;;;;;;8.88;72.12;99553.53;10325701;28;20045;-63
2024/01/01 17:01:25;;;;;;;8.32;2.83;;;;;;;8.93;72.21;99558.44;10328575;28;20050;-63
2024/01/01 17:06:27;;;;;;;12.20;3.15;;;;;;;8.85;72.09;99549.31;10348121;28;20116;-63
2024/01/01 17:11:28;;;;;;;8.02;2.53;;;;;;;8.80;72.48;99542.72;10350424;28;20115;-65
2024/01/01 17:16:30;;;;;;;7.50;3.08;;;;;;;8.79;72.74;99547.19;10331515;28;20108;-64
2024/01/01 17:21:32;;;;;;;9.93;3.17;;;;;;;8.98;72.37;99565.06;10328241;28;20442;-62
2024/01/01 17:26:33;;;;;;;9.75;3.05;;;;;;;8.94;71.89;99576.06;10332369;28;20141;-62
2024/01/01 17:31:37;;;;;;;10.40;2.28;;;;;;;8.92;71.76;99570.06;10329191;28;20053;-64
2024/01/01 17:36:38;;;;;;;12.40;4.05;;;;;;;8.72;71.66;99546.03;10327083;28;20214;-64
2024/01/01 17:41:40;;;;;;;12.77;3.13;;;;;;;8.91;71.76;99574.50;10326001;28;20072;-65
2024/01/01 17:46:43;;;;;;;6.55;2.38;;;;;;;8.88;72.40;99582.72;10339887;28;20671;-64
2024/01/01 17:51:45;;;;;;;10.75;3.72;;;;;;;8.92;72.96;99596.59;10330723;28;20103;-64
2024/01/01 17:56:46;;;;;;;10.25;2.88;;;;;;;8.97;73.46;99603.19;10326984;28;20658;-64
2024/01/01 18:01:48;;;;;;;14.25;3.35;;;;;;;8.95;73.21;99594.50;10328950;28;20691;-63
2024/01/01 18:06:50;;;;;;;13.80;4.80;;;;;;;8.89;72.99;99583.56;10327184;28;20059;-62
2024/01/01 18:11:52;;;;;;;9.63;3.25;;;;;;;8.83;73.14;99579.63;10328109;28;20142;-64
2024/01/01 18:16:53;;;;;;;20.33;8.15;;;;;;;8.95;73.18;99604.31;10348635;28;21920;-66
2024/01/01 18:21:55;;;;;;;13.18;3.90;;;;;;;8.95;73.58;99588.38;10345486;28;20085;-63
2024/01/01 18:26:57;;;;;;;7.63;3.20;;;;;;;9.05;73.10;99594.56;10324655;28;20154;-62
2024/01/01 18:31:58;;;;;;;11.25;3.67;;;;;;;9.07;72.57;99592.66;10323267;28;20740;-63
2024/01/01 18:37:00;;;;;;;10.35;3.75;;;;;;;9.07;72.34;99592.66;10326565;28;20647;-64
2024/01/01 18:42:01;;;;;;;11.63;3.42;;;;;;;8.94;72.30;99570.75;10322239;28;20065;-63
2024/01/01 18:47:04;;;;;;;9.82;3.00;;;;;;;9.01;72.67;99583.38;10318827;28;20215;-63
2024/01/01 18:52:06;;;;;;;15.95;4.28;;;;;;;8.90;72.12;99574.63;10334886;28;20057;-63
2024/01/01 18:57:07;;;;;;;16.08;3.50;;;;;;;8.83;72.87;99564.53;10336724;28;20042;-64
2024/01/01 19:02:09;;;;;;;11.73;3.78;;;;;;;8.94;72.67;99582.19;10321832;28;20699;-64
2024/01/01 19:07:12;;;;;;;13.50;3.58;;;;;;;8.80;73.06;99575.41;10320203;28;20141;-64
2024/01/01 19:12:14;;;;;;;10.98;3.80;;;;;;;8.85;73.35;99575.84;10322842;28;20156;-64
2024/01/01 19:17:15;;;;;;;11.07;3.40;;;;;;;8.84;73.21;99587.47;10321053;28;20056;-62
2024/01/01 19:22:18;;;;;;;12.77;3.03;;;;;;;8.80;72.86;99591.34;10319006;28;20049;-62
2024/01/01 19:27:19;;;;;;;14.38;5.90;;;;;;;8.78;72.84;99587.13;10301180;28;20061;-65
2024/01/01 19:32:21;;;;;;;9.18;3.35;;;;;;;8.77;73.31;99586.28;10339064;28;20050;-62
2024/01/01 19:37:23;;;;;;;14.07;3.75;;;;;;;8.75;72.88;99580.28;10322697;28;20053;-63
2024/01/01 19:42:25;;;;;;;9.10;2.90;;;;;;;8.76;73.17;99568.66;10322002;28;20089;-62
2024/01/01 19:47:28;;;;;;;14.82;7.75;;;;;;;8.79;73.13;99568.41;10335206;28;20081;-64
2024/01/01 19:52:29;;;;;;;8.50;4.00;;;;;;;8.88;72.87;99579.25;10343247;28;20050;-62
2024/01/01 19:57:37;;;;;;;11.65;7.07;;;;;;;8.62;72.76;99542.47;10323516;28;20065;-63
2024/01/01 20:02:39;;;;;;;13.27;5.25;;;;;;;8.72;75.37;99583.19;10320372;28;20136;-63
2024/01/01 20:07:40;;;;;;;9.60;2.78;;;;;;;8.66;78.21;99567.75;10334201;28;20057;-64
2024/01/01 20:12:41;;;;;;;4.57;1.45;;;;;;;8.54;79.60;99563.47;10344229;28;20143;-64
2024/01/01 20:17:43;;;;;;;6.65;1.95;;;;;;;8.59;80.04;99567.44;10349204;28;20053;-63
2024/01/01 20:22:45;;;;;;;8.38;2.85;;;;;;;8.63;79.87;99570.66;10327122;28;20248;-63
2024/01/01 20:27:46;;;;;;;14.73;8.45;;;;;;;8.67;80.53;99569.44;10333681;28;20648;-65
2024/01/01 20:32:48;;;;;;;7.07;2.65;;;;;;;8.64;80.08;99561.75;10370717;28;20058;-63
2024/01/01 20:37:50;;;;;;;8.93;2.40;;;;;;;8.48;80.30;99539.16;10327128;28;20061;-64
2024/01/01 20:42:54;;;;;;;29.48;25.35;;;;;;;8.53;81.18;99541.41;10329644;28;20046;-64
2024/01/01 20:47:55;;;;;;;29.08;21.60;;;;;;;8.54;82.46;99534.28;10329130;28;20204;-64
2024/01/01 20:52:56;;;;;;;9.25;6.85;;;;;;;8.59;81.89;99521.50;10328189;28;20049;-63
2024/01/01 20:57:58;;;;;;;7.13;2.50;;;;;;;8.72;80.84;99514.19;10326375;28;20054;-63
2024/01/01 21:03:00;;;;;;;8.27;3.70;;;;;;;8.74;80.88;99506.94;10326294;28;20208;-63
2024/01/01 21:08:04;;;;;;;9.82;3.20;;;;;;;8.71;80.78;99495.72;10354713;28;20054;-64
2024/01/01 21:13:05;;;;;;;6.95;2.33;;;;;;;8.66;80.83;99481.06;10379847;28;20127;-62
2024/01/01 21:18:07;;;;;;;7.47;2.33;;;;;;;8.68;80.87;99465.00;10327648;28;20139;-63
2024/01/01 21:23:08;;;;;;;9.27;3.15;;;;;;;8.79;81.12;99469.41;10342058;28;20354;-63
2024/01/01 21:28:10;;;;;;;8.80;4.88;;;;;;;8.64;80.67;99468.88;10328827;28;20053;-63
2024/01/01 21:33:12;;;;;;;8.93;2.35;;;;;;;8.59;81.07;99457.84;10325770;28;20079;-63
2024/01/01 21:38:13;;;;;;;8.20;2.50;;;;;;;8.66;80.99;99438.59;10322674;28;20829;-62
2024/01/01 21:43:16;;;;;;;12.93;3.70;;;;;;;8.42;80.58;99428.25;10327236;28;20148;-64
2024/01/01 21:48:17;;;;;;;11.30;5.82;;;;;;;8.58;80.87;99437.56;10326319;28;20123;-64
2024/01/01 21:53:19;;;;;;;9.20;2.40;;;;;;;8.62;80.80;99444.31;10342867;28;20058;-63
2024/01/01 21:58:20;;;;;;;7.07;2.42;;;;;;;8.61;78.50;99453.22;10326048;28;20061;-62
2024/01/01 22:03:23;;;;;;;5.75;1.90;;;;;;;8.60;78.43;99440.94;10322080;28;20228;-62
2024/01/01 22:08:24;;;;;;;7.18;1.88;;;;;;;8.59;77.32;99434.78;10326259;28;20061;-63
2024/01/01 22:13:27;;;;;;;5.93;2.60;;;;;;;8.57;78.03;99443.84;10340182;28;20129;-63
2024/01/01 22:18:28;;;;;;;6.78;2.15;;;;;;;8.58;76.85;99448.19;10325822;28;20056;-63
2024/01/01 22:23:30;;;;;;;5.93;2.15;;;;;;;8.54;78.46;99446.75;10326772;28;20117;-64
2024/01/01 22:28:31;;;;;;;7.55;2.00;;;;;;;8.53;78.69;99439.75;10325273;28;20471;-63
2024/01/01 22:33:33;;;;;;;5.53;2.03;;;;;;;8.54;79.67;99433.50;10326756;28;20184;-63
2024/01/01 22:38:35;;;;;;;6.47;1.70;;;;;;;8.56;80.53;99448.31;10324445;28;20050;-63
2024/01/01 22:43:36;;;;;;;7.50;2.20;;;;;;;8.51;81.05;99447.03;10327525;28;20060;-64
2024/01/01 22:48:38;;;;;;;7.55;2.65;;;;;;;8.41;82.27;99437.16;10326623;28;20054;-63
2024/01/01 22:53:39;;;;;;;5.35;1.85;;;;;;;8.44;84.04;99426.31;10323456;28;20173;-64
2024/01/01 22:58:43;;;;;;;8.20;1.90;;;;;;;8.21;84.37;99404.38;10321018;28;20085;-64
2024/01/01 23:03:44;;;;;;;6.03;1.75;;;;;;;8.36;85.57;99422.59;10324853;28;20081;-63
2024/01/01 23:08:46;;;;;;;4.78;1.77;;;;;;;8.28;86.34;99410.00;10328181;28;20093;-64
2024/01/01 23:13:47;;;;;;;7.95;2.03;;;;;;;8.34;86.32;99398.88;10322794;28;20547;-63
2024/01/01 23:18:49;;;;;;;6.80;2.15;;;;;;;8.26;85.98;99385.44;10320989;28;20054;-64
2024/01/01 23:23:50;;;;;;;5.07;1.58;;;;;;;8.20;86.78;99370.06;10325370;28;20121;-63
2024/01/01 23:28:56;;;;;;;5.95;1.52;;;;;;;8.21;86.98;99356.66;10325774;28;20132;-63
2024/01/01 23:33:58;;;;;;;6.82;1.65;;;;;;;8.10;87.34;99346.94;10321045;28;20612;-62